Time;durP1;ratioP1;P1;durP2;ratioP2;P2;SDS_P1;SDS_P2;PMS_P1;PMS_P2;Temp;Humidity;BMP_temperature;BMP_pressure;BME280_temperature;BME280_humidity;BME280_pressure;Samples;Min_cycle;Max_cycle;Signal;HPM_P1;HPM_P2
2022/10/22 00:00:12;;;;;;;15.57;11.23;;;14.40;99.90;;;;;;4974121;28;20081;-72
2022/10/22 00:02:38;;;;;;;17.52;12.73;;;14.40;99.90;;;;;;4985726;28;20022;-71
2022/10/22 00:05:05;;;;;;;19.25;13.30;;;14.50;99.90;;;;;;4986829;28;20105;-71
2022/10/22 00:07:31;;;;;;;17.38;11.77;;;14.40;99.90;;;;;;4992457;28;20034;-72
2022/10/22 00:09:57;;;;;;;18.27;12.40;;;14.50;99.90;;;;;;4989727;28;20058;-72
2022/10/22 00:12:23;;;;;;;20.33;13.43;;;14.50;99.90;;;;;;4992639;28;20026;-71
2022/10/22 00:14:49;;;;;;;21.23;15.02;;;14.50;99.90;;;;;;4971567;28;20032;-72
2022/10/22 00:17:15;;;;;;;20.50;14.27;;;14.50;99.90;;;;;;4995528;28;20030;-72
2022/10/22 00:19:41;;;;;;;18.58;14.02;;;14.50;99.90;;;;;;4986503;28;20030;-72
2022/10/22 00:22:08;;;;;;;19.65;13.73;;;14.50;99.90;;;;;;4996857;28;20031;-71
2022/10/22 00:24:36;;;;;;;19.35;14.20;;;14.50;99.90;;;;;;4995313;28;20030;-72
2022/10/22 00:27:03;;;;;;;23.25;15.90;;;14.50;99.90;;;;;;4992938;28;20042;-72
2022/10/22 00:29:29;;;;;;;23.60;14.45;;;14.40;99.90;;;;;;4986708;28;20494;-72
2022/10/22 00:31:54;;;;;;;21.67;14.77;;;14.50;99.90;;;;;;4992654;28;20076;-73
2022/10/22 00:34:21;;;;;;;18.40;13.23;;;14.50;99.90;;;;;;4988090;28;20062;-72
2022/10/22 00:36:48;;;;;;;21.88;15.02;;;14.50;99.90;;;;;;4989219;28;20026;-72
2022/10/22 00:39:16;;;;;;;22.33;14.40;;;14.50;99.90;;;;;;4994298;28;20026;-72
2022/10/22 00:41:43;;;;;;;19.90;14.15;;;14.50;99.90;;;;;;4986555;28;20033;-72
2022/10/22 00:44:47;;;;;;;18.42;13.25;;;14.50;99.90;;;;;;4989864;28;20054;-72
2022/10/22 00:47:14;;;;;;;19.15;13.02;;;14.50;99.90;;;;;;4996924;28;20031;-72
2022/10/22 00:49:40;;;;;;;17.33;12.77;;;14.50;99.90;;;;;;4993159;28;20513;-72
2022/10/22 00:52:06;;;;;;;17.10;11.80;;;14.50;99.90;;;;;;4992521;28;20034;-73
2022/10/22 00:54:33;;;;;;;18.83;12.85;;;14.50;99.90;;;;;;4986603;28;20058;-72
2022/10/22 00:57:00;;;;;;;19.02;12.73;;;14.50;99.90;;;;;;4959842;28;20042;-72
2022/10/22 00:59:26;;;;;;;21.50;13.70;;;14.50;99.90;;;;;;4973394;28;20038;-72
2022/10/22 01:01:52;;;;;;;21.08;13.43;;;14.50;99.90;;;;;;4995404;28;20033;-71
2022/10/22 01:04:19;;;;;;;18.90;12.90;;;14.50;99.90;;;;;;4987332;28;20387;-72
2022/10/22 01:06:46;;;;;;;19.27;13.27;;;14.50;99.90;;;;;;4993184;28;20054;-72
2022/10/22 01:09:25;;;;;;;17.88;12.50;;;14.50;99.90;;;;;;5012752;28;20031;-72
2022/10/22 01:12:05;;;;;;;22.83;14.40;;;14.50;99.90;;;;;;4995743;28;20542;-72
2022/10/22 01:14:51;;;;;;;21.23;14.52;;;14.50;99.90;;;;;;4979249;28;20038;-72
2022/10/22 01:17:40;;;;;;;20.52;14.00;;;14.50;99.90;;;;;;4991255;28;20037;-72
2022/10/22 01:20:21;;;;;;;19.45;13.65;;;14.50;99.90;;;;;;4973976;28;20018;-72
2022/10/22 01:22:53;;;;;;;19.60;14.00;;;14.50;99.90;;;;;;4989128;28;20081;-72
2022/10/22 01:25:45;;;;;;;19.60;13.43;;;14.50;99.90;;;;;;4990883;28;20108;-72
2022/10/22 01:28:29;;;;;;;21.85;14.70;;;14.50;99.90;;;;;;4983591;28;20056;-72
2022/10/22 01:30:56;;;;;;;22.58;15.85;;;14.40;99.90;;;;;;4991896;28;20033;-72
2022/10/22 01:33:25;;;;;;;24.85;16.05;;;14.40;99.90;;;;;;4970240;28;20027;-72
2022/10/22 01:35:52;;;;;;;22.73;15.05;;;14.30;99.90;;;;;;4973473;28;20505;-72
2022/10/22 01:38:20;;;;;;;22.92;14.93;;;14.30;99.90;;;;;;5000838;28;20095;-72
2022/10/22 01:40:46;;;;;;;23.98;16.30;;;14.30;99.90;;;;;;4975121;28;20394;-72
2022/10/22 01:43:12;;;;;;;23.40;15.55;;;14.20;99.90;;;;;;4977292;28;20037;-72
2022/10/22 01:45:56;;;;;;;28.00;17.13;;;14.20;99.90;;;;;;4987268;28;20049;-72
2022/10/22 01:49:04;;;;;;;24.63;15.55;;;14.20;99.90;;;;;;4994468;28;20031;-72
2022/10/22 01:51:42;;;;;;;25.33;16.15;;;14.10;99.90;;;;;;4968730;28;20652;-72
2022/10/22 01:54:38;;;;;;;23.90;16.35;;;14.10;99.90;;;;;;4990839;28;20081;-72
2022/10/22 01:57:27;;;;;;;25.42;16.88;;;14.00;99.90;;;;;;4993180;28;20842;-72
2022/10/22 02:00:11;;;;;;;28.27;16.23;;;14.00;99.90;;;;;;4985589;28;20122;-72
2022/10/22 02:02:46;;;;;;;25.45;16.67;;;14.00;99.90;;;;;;4988956;28;20037;-72
2022/10/22 02:05:31;;;;;;;23.20;15.88;;;13.90;99.90;;;;;;4989966;28;20037;-73
2022/10/22 02:08:05;;;;;;;27.35;16.77;;;13.90;99.90;;;;;;4986123;28;20026;-72
2022/10/22 02:10:31;;;;;;;26.58;16.73;;;13.90;99.90;;;;;;4990360;28;20065;-72
2022/10/22 02:13:00;;;;;;;25.23;16.02;;;13.90;99.90;;;;;;4990777;28;20034;-72
2022/10/22 02:15:29;;;;;;;28.83;17.35;;;13.90;99.90;;;;;;4990363;28;20034;-72
2022/10/22 02:17:57;;;;;;;26.30;16.42;;;13.90;99.90;;;;;;4990861;28;20030;-72
2022/10/22 02:20:27;;;;;;;30.13;17.50;;;13.80;99.90;;;;;;4987734;28;20053;-73
2022/10/22 02:22:54;;;;;;;25.35;16.85;;;13.80;99.90;;;;;;4990482;28;20050;-72
2022/10/22 02:25:27;;;;;;;23.13;15.35;;;13.80;99.90;;;;;;4993428;28;20026;-74
2022/10/22 02:27:55;;;;;;;25.67;16.52;;;13.80;99.90;;;;;;4992541;28;20159;-72
2022/10/22 02:30:22;;;;;;;27.00;16.58;;;13.80;99.90;;;;;;4989816;28;20036;-72
2022/10/22 02:33:12;;;;;;;24.60;16.70;;;13.80;99.90;;;;;;5000442;28;20033;-72
2022/10/22 02:35:40;;;;;;;24.27;16.33;;;13.80;99.90;;;;;;4986321;28;20081;-71
2022/10/22 02:38:07;;;;;;;23.33;16.05;;;13.80;99.90;;;;;;4995169;28;20030;-72
2022/10/22 02:40:33;;;;;;;25.60;16.73;;;13.80;99.90;;;;;;4991392;28;20493;-71
2022/10/22 02:42:58;;;;;;;27.85;16.15;;;13.70;99.90;;;;;;4973714;28;20036;-72
2022/10/22 02:45:24;;;;;;;28.52;16.50;;;13.70;99.90;;;;;;4970949;28;20033;-71
2022/10/22 02:47:50;;;;;;;27.80;17.05;;;13.70;99.90;;;;;;4996046;28;20077;-71
2022/10/22 02:50:16;;;;;;;24.00;16.27;;;13.70;99.90;;;;;;4991188;28;20487;-71
2022/10/22 02:52:42;;;;;;;28.83;17.63;;;13.70;99.90;;;;;;4989119;28;20038;-71
2022/10/22 02:55:08;;;;;;;25.50;16.92;;;13.70;99.90;;;;;;4988420;28;20030;-72
2022/10/22 02:57:35;;;;;;;25.95;17.00;;;13.70;99.90;;;;;;4990767;28;20034;-72
2022/10/22 03:00:01;;;;;;;26.65;17.48;;;13.70;99.90;;;;;;4989542;28;20506;-71
2022/10/22 03:02:26;;;;;;;25.98;16.52;;;13.70;99.90;;;;;;4986981;28;20044;-71
2022/10/22 03:04:52;;;;;;;24.08;16.73;;;13.70;99.90;;;;;;4972606;28;20518;-71
2022/10/22 03:07:17;;;;;;;29.25;18.20;;;13.70;99.90;;;;;;4995598;28;20399;-72
2022/10/22 03:09:43;;;;;;;23.20;15.35;;;13.70;99.90;;;;;;4971287;28;20030;-72
2022/10/22 03:12:09;;;;;;;23.30;16.77;;;13.70;99.90;;;;;;4991509;28;20038;-72
2022/10/22 03:14:35;;;;;;;28.55;17.52;;;13.60;99.90;;;;;;4991628;28;20036;-71
2022/10/22 03:17:01;;;;;;;25.02;16.40;;;13.60;99.90;;;;;;4994949;28;20124;-72
2022/10/22 03:19:27;;;;;;;27.27;18.05;;;13.60;99.90;;;;;;4988317;28;20050;-71
2022/10/22 03:21:58;;;;;;;28.85;18.30;;;13.60;99.90;;;;;;4994081;28;20085;-71
2022/10/22 03:24:33;;;;;;;26.50;16.88;;;13.60;99.90;;;;;;4984252;28;20050;-71
2022/10/22 03:26:58;;;;;;;27.55;17.33;;;13.60;99.90;;;;;;4983638;28;20041;-72
2022/10/22 03:29:26;;;;;;;24.00;16.10;;;13.60;99.90;;;;;;4994661;28;20034;-71
2022/10/22 03:31:52;;;;;;;23.80;16.50;;;13.60;99.90;;;;;;4972375;28;20065;-72
2022/10/22 03:34:18;;;;;;;29.58;17.88;;;13.60;99.90;;;;;;4991394;28;20517;-71
2022/10/22 03:36:45;;;;;;;25.05;16.10;;;13.60;99.90;;;;;;4974007;28;20026;-72
2022/10/22 03:39:16;;;;;;;30.42;18.10;;;13.60;99.90;;;;;;4991374;28;20580;-71
2022/10/22 03:41:43;;;;;;;25.40;16.35;;;13.50;99.90;;;;;;4972069;28;20076;-72
2022/10/22 03:44:09;;;;;;;26.25;17.25;;;13.50;99.90;;;;;;4989770;28;20372;-71
2022/10/22 03:46:35;;;;;;;28.38;16.75;;;13.50;99.90;;;;;;4994709;28;20026;-72
2022/10/22 03:49:00;;;;;;;25.38;16.83;;;13.50;99.90;;;;;;4971950;28;20034;-71
2022/10/22 03:51:27;;;;;;;27.33;18.27;;;13.50;99.90;;;;;;4985688;28;20026;-71
2022/10/22 03:53:53;;;;;;;22.98;16.25;;;13.50;99.90;;;;;;4987485;28;20044;-72
2022/10/22 03:56:19;;;;;;;25.58;17.35;;;13.50;99.90;;;;;;4992716;28;20065;-72
2022/10/22 03:58:45;;;;;;;25.85;16.73;;;13.50;99.90;;;;;;4971914;28;20756;-71
2022/10/22 04:01:12;;;;;;;25.73;16.35;;;13.50;99.90;;;;;;4975136;28;20567;-71
2022/10/22 04:03:38;;;;;;;25.65;16.73;;;13.50;99.90;;;;;;4974111;28;20065;-71
2022/10/22 04:06:07;;;;;;;27.42;18.00;;;13.50;99.90;;;;;;4988113;28;20039;-71
2022/10/22 04:08:33;;;;;;;28.10;18.13;;;13.50;99.90;;;;;;4988469;28;20082;-71
2022/10/22 04:10:59;;;;;;;28.73;17.42;;;13.40;99.90;;;;;;4989551;28;20030;-71
2022/10/22 04:13:24;;;;;;;27.83;17.77;;;13.40;99.90;;;;;;4989405;28;20102;-71
2022/10/22 04:15:53;;;;;;;28.58;17.48;;;13.40;99.90;;;;;;4994555;28;20032;-71
2022/10/22 04:18:20;;;;;;;29.80;18.90;;;13.40;99.90;;;;;;4976161;28;20042;-71
2022/10/22 04:20:46;;;;;;;29.20;18.77;;;13.40;99.90;;;;;;4977002;28;20034;-72
2022/10/22 04:23:12;;;;;;;29.33;17.88;;;13.40;99.90;;;;;;4970575;28;20026;-71
2022/10/22 04:25:38;;;;;;;29.58;17.50;;;13.30;99.90;;;;;;4986741;28;20474;-71
2022/10/22 04:28:08;;;;;;;28.40;18.05;;;13.40;99.90;;;;;;4992532;28;20490;-72
2022/10/22 04:30:35;;;;;;;30.50;18.90;;;13.40;99.90;;;;;;4988312;28;20073;-72
2022/10/22 04:33:01;;;;;;;29.90;18.20;;;13.40;99.90;;;;;;4976908;28;20031;-72
2022/10/22 04:35:28;;;;;;;28.83;17.65;;;13.40;99.90;;;;;;4991333;28;20030;-71
2022/10/22 04:37:54;;;;;;;26.17;17.35;;;13.30;99.90;;;;;;4991694;28;20041;-71
2022/10/22 04:40:20;;;;;;;28.60;17.65;;;13.30;99.90;;;;;;4975059;28;20121;-72
2022/10/22 04:42:46;;;;;;;28.25;18.42;;;13.30;99.90;;;;;;4990454;28;20019;-72
2022/10/22 04:45:12;;;;;;;28.77;18.20;;;13.30;99.90;;;;;;4981387;28;20041;-72
2022/10/22 04:47:37;;;;;;;27.45;17.83;;;13.30;99.90;;;;;;4991089;28;20022;-72
2022/10/22 04:50:04;;;;;;;24.30;16.38;;;13.30;99.90;;;;;;4975367;28;20053;-72
2022/10/22 04:52:30;;;;;;;29.67;18.90;;;13.30;99.90;;;;;;4992522;28;20042;-72
2022/10/22 04:54:55;;;;;;;31.08;19.65;;;13.30;99.90;;;;;;4976441;28;20033;-72
2022/10/22 04:57:21;;;;;;;28.67;18.55;;;13.30;99.90;;;;;;4999230;28;20050;-73
2022/10/22 04:59:47;;;;;;;29.02;18.35;;;13.30;99.90;;;;;;4995713;28;20079;-71
2022/10/22 05:02:12;;;;;;;39.45;19.90;;;13.30;99.90;;;;;;4994094;28;20194;-72
2022/10/22 05:04:38;;;;;;;29.00;18.90;;;13.30;99.90;;;;;;4978546;28;20033;-72
2022/10/22 05:07:04;;;;;;;34.22;18.83;;;13.30;99.90;;;;;;4980965;28;20750;-72
2022/10/22 05:09:29;;;;;;;29.73;19.40;;;13.30;99.90;;;;;;4992624;28;20030;-72
2022/10/22 05:11:55;;;;;;;28.00;18.38;;;13.30;99.90;;;;;;4975935;28;20088;-72
2022/10/22 05:14:23;;;;;;;30.77;19.02;;;13.30;99.90;;;;;;4993108;28;20667;-72
2022/10/22 05:16:50;;;;;;;34.22;19.27;;;13.20;99.90;;;;;;4991408;28;20049;-72
2022/10/22 05:19:25;;;;;;;31.73;19.85;;;13.30;99.90;;;;;;4993524;28;20054;-72
2022/10/22 05:21:53;;;;;;;29.13;18.65;;;13.30;99.90;;;;;;4991229;28;20030;-72
2022/10/22 05:24:19;;;;;;;28.83;18.33;;;13.30;99.90;;;;;;4994708;28;20022;-72
2022/10/22 05:26:47;;;;;;;31.60;19.30;;;13.20;99.90;;;;;;4979173;28;20046;-72
2022/10/22 05:29:13;;;;;;;32.22;19.05;;;13.20;99.90;;;;;;4996487;28;20035;-71
2022/10/22 05:31:38;;;;;;;29.40;18.63;;;13.20;99.90;;;;;;4995391;28;20022;-72
2022/10/22 05:34:04;;;;;;;30.63;19.67;;;13.20;99.90;;;;;;5001571;28;20038;-71
2022/10/22 05:36:30;;;;;;;32.22;19.30;;;13.20;99.90;;;;;;4990161;28;20038;-72
2022/10/22 05:38:56;;;;;;;31.17;20.95;;;13.20;99.90;;;;;;4996221;28;20042;-71
2022/10/22 05:41:24;;;;;;;31.67;19.05;;;13.20;99.90;;;;;;4993362;28;20046;-72
2022/10/22 05:43:52;;;;;;;29.52;18.63;;;13.20;99.90;;;;;;5006603;28;20381;-72
2022/10/22 05:46:20;;;;;;;26.80;17.38;;;13.20;99.90;;;;;;4997767;28;20157;-72
2022/10/22 05:49:05;;;;;;;27.23;17.88;;;13.20;99.90;;;;;;4997283;28;20046;-72
2022/10/22 05:51:33;;;;;;;30.90;19.58;;;13.20;99.90;;;;;;4993028;28;20037;-71
2022/10/22 05:54:01;;;;;;;30.63;19.17;;;13.20;99.90;;;;;;4989539;28;20157;-72
2022/10/22 05:56:30;;;;;;;29.92;19.70;;;13.20;99.90;;;;;;4991990;28;20084;-72
2022/10/22 05:58:57;;;;;;;30.73;19.25;;;13.20;99.90;;;;;;4999448;28;20028;-71
2022/10/22 06:01:34;;;;;;;30.75;19.35;;;13.20;99.90;;;;;;4991505;28;20077;-71
2022/10/22 06:04:02;;;;;;;29.45;19.15;;;13.20;99.90;;;;;;4962737;28;20018;-71
2022/10/22 06:06:35;;;;;;;34.65;21.17;;;13.20;99.90;;;;;;5000315;28;20042;-71
2022/10/22 06:09:23;;;;;;;36.20;21.13;;;13.20;99.90;;;;;;4990719;28;20034;-73
2022/10/22 06:11:49;;;;;;;33.17;21.58;;;13.10;99.90;;;;;;4990910;28;20026;-71
2022/10/22 06:14:15;;;;;;;33.20;20.02;;;13.20;99.90;;;;;;4991530;28;20085;-71
2022/10/22 06:16:42;;;;;;;34.13;20.73;;;13.10;99.90;;;;;;5001302;28;20750;-73
2022/10/22 06:19:10;;;;;;;34.70;21.38;;;13.10;99.90;;;;;;4990361;28;20039;-73
2022/10/22 06:21:36;;;;;;;34.17;20.92;;;13.10;99.90;;;;;;4991348;28;20097;-73
2022/10/22 06:24:02;;;;;;;33.47;20.92;;;13.10;99.90;;;;;;4991682;28;20606;-71
2022/10/22 06:26:28;;;;;;;34.78;21.33;;;13.10;99.90;;;;;;4990098;28;20483;-72
2022/10/22 06:28:55;;;;;;;30.15;19.92;;;13.10;99.90;;;;;;4993191;28;20143;-72
2022/10/22 06:31:21;;;;;;;22.42;14.93;;;13.10;99.90;;;;;;4992578;28;20038;-72
2022/10/22 06:33:47;;;;;;;29.10;19.23;;;13.90;99.90;;;;;;4978399;28;20038;-72
2022/10/22 06:36:15;;;;;;;28.88;18.25;;;13.70;99.90;;;;;;4993059;28;20034;-72
2022/10/22 06:38:42;;;;;;;29.40;19.23;;;13.50;99.90;;;;;;4988934;28;20042;-72
2022/10/22 06:41:10;;;;;;;25.92;18.25;;;13.50;99.90;;;;;;4999249;28;20032;-72
2022/10/22 06:43:36;;;;;;;26.75;18.13;;;13.40;99.90;;;;;;4988630;28;20031;-72
2022/10/22 06:46:06;;;;;;;29.85;19.50;;;13.30;99.90;;;;;;4989354;28;20037;-72
2022/10/22 06:48:32;;;;;;;30.70;19.00;;;13.30;99.90;;;;;;4988554;28;20030;-72
2022/10/22 06:51:05;;;;;;;28.02;18.63;;;13.30;99.90;;;;;;4992867;28;20565;-72
2022/10/22 06:53:31;;;;;;;26.67;18.23;;;13.20;99.90;;;;;;4989498;28;20105;-72
2022/10/22 06:55:57;;;;;;;28.92;18.80;;;13.30;99.90;;;;;;4991043;28;20093;-72
2022/10/22 06:58:23;;;;;;;29.90;19.33;;;13.20;99.90;;;;;;4986174;28;20145;-72
2022/10/22 07:00:48;;;;;;;28.30;19.13;;;13.20;99.90;;;;;;4992303;28;20026;-72
2022/10/22 07:03:15;;;;;;;28.05;19.10;;;13.30;99.90;;;;;;4985871;28;20092;-72
2022/10/22 07:05:41;;;;;;;31.90;20.08;;;13.20;99.90;;;;;;4976355;28;20100;-72
2022/10/22 07:08:07;;;;;;;28.58;18.83;;;13.30;99.90;;;;;;4972019;28;20026;-72
2022/10/22 07:10:33;;;;;;;28.63;19.02;;;13.30;99.90;;;;;;4977877;28;20023;-72
2022/10/22 07:12:59;;;;;;;32.15;20.75;;;13.30;99.90;;;;;;4987390;28;20026;-72
2022/10/22 07:15:24;;;;;;;26.08;18.77;;;13.30;99.90;;;;;;4989222;28;20054;-72
2022/10/22 07:17:50;;;;;;;25.67;16.85;;;13.30;99.90;;;;;;4990380;28;20389;-72
2022/10/22 07:20:17;;;;;;;31.13;19.75;;;13.40;99.90;;;;;;4987196;28;20031;-73
2022/10/22 07:22:44;;;;;;;27.77;18.30;;;13.40;99.90;;;;;;4988981;28;20033;-72
2022/10/22 07:25:10;;;;;;;27.15;18.88;;;13.40;99.90;;;;;;4987396;28;20027;-73
2022/10/22 07:27:36;;;;;;;27.10;18.38;;;13.40;99.90;;;;;;4971448;28;20502;-72
2022/10/22 07:30:03;;;;;;;28.80;18.50;;;13.40;99.90;;;;;;4986178;28;20506;-72
2022/10/22 07:32:28;;;;;;;26.05;17.90;;;13.40;99.90;;;;;;4987809;28;20077;-72
2022/10/22 07:34:54;;;;;;;28.85;18.75;;;13.50;99.90;;;;;;4987564;28;20030;-71
2022/10/22 07:37:20;;;;;;;25.20;17.20;;;13.50;99.90;;;;;;4985335;28;20049;-72
2022/10/22 07:39:49;;;;;;;24.88;16.75;;;13.60;99.90;;;;;;4989860;28;20401;-72
2022/10/22 07:42:15;;;;;;;21.75;16.08;;;13.60;99.90;;;;;;4970765;28;20490;-72
2022/10/22 07:44:41;;;;;;;23.80;16.88;;;13.60;99.90;;;;;;4988139;28;20026;-71
2022/10/22 07:47:06;;;;;;;24.27;16.15;;;13.60;99.90;;;;;;4970914;28;20113;-72
2022/10/22 07:49:32;;;;;;;26.13;17.23;;;13.70;99.90;;;;;;4986295;28;20033;-72
2022/10/22 07:51:58;;;;;;;25.15;16.08;;;13.70;99.90;;;;;;4982975;28;20019;-71
2022/10/22 07:54:23;;;;;;;26.77;16.95;;;13.80;99.90;;;;;;4986130;28;20022;-72
2022/10/22 07:56:49;;;;;;;24.33;16.45;;;13.80;99.90;;;;;;4966194;28;20030;-71
2022/10/22 07:59:15;;;;;;;26.05;17.70;;;13.90;99.90;;;;;;4981397;28;20034;-72
2022/10/22 08:01:41;;;;;;;30.33;19.45;;;13.90;99.90;;;;;;4979434;28;20248;-72
2022/10/22 08:04:08;;;;;;;25.50;17.45;;;13.90;99.90;;;;;;4961074;28;20046;-72
2022/10/22 08:06:35;;;;;;;25.30;17.40;;;14.00;99.90;;;;;;4985159;28;20105;-72
2022/10/22 08:09:01;;;;;;;26.75;17.85;;;14.10;99.90;;;;;;4961906;28;20038;-72
2022/10/22 08:11:26;;;;;;;26.75;16.60;;;14.10;99.90;;;;;;4965722;28;20488;-71
2022/10/22 08:13:52;;;;;;;28.60;19.02;;;14.20;99.90;;;;;;4988052;28;20577;-71
2022/10/22 08:16:18;;;;;;;24.27;16.30;;;14.30;99.90;;;;;;4972236;28;20065;-71
2022/10/22 08:18:44;;;;;;;23.30;16.83;;;14.40;99.90;;;;;;4959558;28;20081;-71
2022/10/22 08:21:11;;;;;;;24.65;16.75;;;14.40;99.90;;;;;;4998216;28;20175;-72
2022/10/22 08:23:37;;;;;;;31.13;18.13;;;14.50;99.90;;;;;;4996681;28;20022;-73
2022/10/22 08:26:04;;;;;;;26.05;16.02;;;14.50;99.90;;;;;;4995402;28;20030;-71
2022/10/22 08:28:34;;;;;;;22.40;15.27;;;14.60;99.90;;;;;;4988022;28;20502;-71
2022/10/22 08:31:04;;;;;;;20.53;14.33;;;14.60;99.90;;;;;;4992498;28;20038;-72
2022/10/22 08:33:30;;;;;;;20.65;14.23;;;14.60;99.90;;;;;;4993898;28;20030;-71
2022/10/22 08:35:56;;;;;;;18.00;13.15;;;14.50;99.90;;;;;;4989057;28;20091;-72
2022/10/22 08:38:21;;;;;;;20.45;13.52;;;14.50;99.90;;;;;;4968813;28;20042;-71
2022/10/22 08:41:11;;;;;;;22.50;13.10;;;14.50;99.90;;;;;;4986241;28;20589;-72
2022/10/22 08:43:58;;;;;;;18.27;12.10;;;14.50;99.90;;;;;;4970709;28;20105;-72
2022/10/22 08:46:32;;;;;;;22.85;14.60;;;14.50;99.90;;;;;;4996918;28;20035;-72
2022/10/22 08:49:01;;;;;;;19.90;12.55;;;14.50;99.90;;;;;;4994142;28;20033;-72
2022/10/22 08:51:32;;;;;;;19.42;13.38;;;14.60;99.90;;;;;;4993033;28;20030;-72
2022/10/22 08:54:32;;;;;;;16.38;11.48;;;14.60;99.90;;;;;;4976201;28;20027;-73
2022/10/22 08:57:07;;;;;;;18.92;11.55;;;14.70;99.90;;;;;;4991385;28;20033;-72
2022/10/22 08:59:39;;;;;;;17.45;11.30;;;14.70;99.90;;;;;;5001127;28;20037;-72
2022/10/22 09:02:20;;;;;;;16.73;10.98;;;14.80;99.90;;;;;;4992500;28;20410;-72
2022/10/22 09:05:11;;;;;;;14.32;9.70;;;14.90;99.90;;;;;;4987208;28;20026;-72
2022/10/22 09:07:42;;;;;;;19.67;11.23;;;14.90;99.90;;;;;;4921433;28;20379;-72
2022/10/22 09:10:11;;;;;;;16.95;11.02;;;14.90;99.90;;;;;;4975010;28;20476;-72
2022/10/22 09:12:37;;;;;;;17.30;9.85;;;15.00;99.90;;;;;;4972556;28;20602;-73
2022/10/22 09:15:03;;;;;;;20.27;9.93;;;15.00;99.90;;;;;;4976700;28;20018;-73
2022/10/22 09:17:52;;;;;;;16.52;9.90;;;15.00;99.90;;;;;;4970588;28;20039;-72
2022/10/22 09:20:32;;;;;;;13.27;8.77;;;15.00;99.90;;;;;;4971193;28;20173;-72
2022/10/22 09:23:18;;;;;;;19.20;9.50;;;15.10;99.90;;;;;;4982945;28;20053;-72
2022/10/22 09:25:45;;;;;;;11.73;8.30;;;15.10;99.90;;;;;;4989145;28;20097;-73
2022/10/22 09:28:11;;;;;;;10.77;7.07;;;15.10;99.90;;;;;;4978429;28;22183;-73
2022/10/22 09:30:38;;;;;;;10.73;7.05;;;15.10;99.90;;;;;;4975750;28;20061;-72
2022/10/22 09:33:24;;;;;;;9.43;6.70;;;15.20;99.90;;;;;;4989655;28;20129;-73
2022/10/22 09:36:06;;;;;;;13.90;7.55;;;15.20;99.90;;;;;;4975071;28;20478;-73
2022/10/22 09:38:39;;;;;;;15.07;8.68;;;15.30;99.90;;;;;;4983880;28;20077;-73
2022/10/22 09:41:05;;;;;;;15.52;8.20;;;15.30;99.90;;;;;;4983877;28;20026;-73
2022/10/22 09:43:32;;;;;;;13.55;7.75;;;15.30;99.90;;;;;;4991808;28;20054;-73
2022/10/22 09:46:03;;;;;;;12.98;7.20;;;15.40;99.90;;;;;;4972106;28;20022;-73
2022/10/22 09:48:33;;;;;;;11.68;7.38;;;15.50;99.90;;;;;;4991405;28;20026;-73
2022/10/22 09:51:04;;;;;;;13.05;7.78;;;15.50;99.90;;;;;;4970206;28;20469;-73
2022/10/22 09:53:34;;;;;;;;;;;15.60;99.90;;;;;;4986220;28;20037;-73
2022/10/22 09:56:04;;;;;;;9.00;4.57;;;15.70;99.90;;;;;;4991710;28;19921;-73
2022/10/22 09:58:44;;;;;;;8.40;5.28;;;15.90;99.90;;;;;;4987168;28;20072;-72
2022/10/22 10:01:32;;;;;;;9.50;4.43;;;16.10;99.90;;;;;;4993187;28;20648;-72
2022/10/22 10:04:07;;;;;;;9.35;5.00;;;16.50;99.90;;;;;;4996364;28;20033;-73
2022/10/22 10:06:34;;;;;;;13.50;5.75;;;16.90;99.90;;;;;;4969413;28;20073;-72
2022/10/22 10:09:04;;;;;;;7.18;3.58;;;17.50;99.90;;;;;;4967665;28;20423;-72
2022/10/22 10:11:52;;;;;;;8.63;4.93;;;18.40;99.90;;;;;;4985313;28;20069;-72
2022/10/22 10:14:36;;;;;;;7.45;4.53;;;19.60;99.90;;;;;;4976693;28;20026;-73
2022/10/22 10:17:06;;;;;;;8.57;3.83;;;20.40;99.90;;;;;;4991673;28;20034;-73
2022/10/22 10:19:38;;;;;;;6.18;3.55;;;20.60;99.90;;;;;;4973820;28;20034;-72
2022/10/22 10:22:30;;;;;;;9.52;3.85;;;20.50;99.90;;;;;;4990657;28;20037;-72
2022/10/22 10:25:08;;;;;;;5.30;3.13;;;20.10;99.90;;;;;;4987872;28;20383;-73
2022/10/22 10:27:41;;;;;;;7.25;3.25;;;20.20;99.90;;;;;;4994310;28;20061;-74
2022/10/22 10:30:20;;;;;;;7.70;3.15;;;20.30;99.90;;;;;;4987221;28;20034;-73
2022/10/22 10:33:01;;;;;;;6.75;3.20;;;20.00;99.90;;;;;;4955448;28;20399;-73
2022/10/22 10:35:39;;;;;;;6.35;2.80;;;20.10;99.90;;;;;;4991584;28;20069;-73
2022/10/22 10:38:36;;;;;;;7.03;2.80;;;20.10;99.90;;;;;;4987052;28;20513;-74
2022/10/22 10:41:20;;;;;;;6.38;2.60;;;20.20;99.90;;;;;;4988411;28;20692;-73
2022/10/22 10:44:16;;;;;;;5.53;3.00;;;20.60;99.90;;;;;;4984742;28;20101;-73
2022/10/22 10:46:55;;;;;;;5.78;3.08;;;20.90;99.90;;;;;;4973197;28;20558;-72
2022/10/22 10:49:31;;;;;;;5.40;3.00;;;20.90;99.90;;;;;;4987417;28;20557;-74
2022/10/22 10:52:21;;;;;;;9.30;3.30;;;21.20;99.90;;;;;;4976187;28;20030;-74
2022/10/22 10:55:27;;;;;;;6.20;3.03;;;21.00;99.90;;;;;;4988324;28;20121;-73
2022/10/22 10:57:53;;;;;;;7.95;3.63;;;20.80;99.90;;;;;;4963182;28;20031;-73
2022/10/22 11:00:20;;;;;;;9.68;3.13;;;20.40;99.90;;;;;;4992779;28;20037;-73
2022/10/22 11:03:07;;;;;;;7.32;3.40;;;20.20;99.90;;;;;;4988658;28;20406;-74
2022/10/22 11:05:59;;;;;;;7.53;3.45;;;19.90;99.90;;;;;;4991868;28;20050;-73
2022/10/22 11:08:29;;;;;;;6.90;3.17;;;19.60;99.90;;;;;;4991175;28;20033;-73
2022/10/22 11:11:18;;;;;;;10.95;3.58;;;19.30;99.90;;;;;;4986788;28;20056;-73
2022/10/22 11:13:59;;;;;;;5.03;2.50;;;18.90;99.90;;;;;;4986565;28;20053;-72
2022/10/22 11:16:27;;;;;;;8.85;3.22;;;18.60;99.90;;;;;;4972818;28;20414;-74
2022/10/22 11:19:06;;;;;;;9.70;2.90;;;18.50;99.90;;;;;;4974080;28;20037;-73
2022/10/22 11:21:45;;;;;;;5.70;2.50;;;18.40;99.90;;;;;;4984450;28;20031;-74
2022/10/22 11:24:20;;;;;;;7.50;2.90;;;18.20;99.90;;;;;;4986821;28;20034;-74
2022/10/22 11:26:59;;;;;;;8.68;2.70;;;18.10;99.90;;;;;;4986756;28;20050;-74
2022/10/22 11:29:33;;;;;;;8.23;3.00;;;17.90;99.90;;;;;;4994351;28;20030;-74
2022/10/22 11:32:01;;;;;;;6.47;2.67;;;17.70;99.90;;;;;;4983934;28;20022;-73
2022/10/22 11:34:44;;;;;;;9.55;3.15;;;17.90;99.90;;;;;;4989516;28;20113;-72
2022/10/22 11:37:12;;;;;;;11.13;3.20;;;18.10;99.90;;;;;;4988796;28;20069;-72
2022/10/22 11:39:48;;;;;;;6.40;2.92;;;18.30;99.90;;;;;;4985214;28;20029;-73
2022/10/22 11:42:21;;;;;;;6.15;2.80;;;18.30;99.90;;;;;;4986723;28;20454;-73
2022/10/22 11:45:00;;;;;;;4.57;2.60;;;18.10;99.90;;;;;;4988132;28;20030;-72
2022/10/22 11:47:31;;;;;;;8.20;2.97;;;18.10;99.90;;;;;;4989623;28;20390;-73
2022/10/22 11:50:36;;;;;;;9.60;2.88;;;18.00;99.90;;;;;;4989585;28;20030;-73
2022/10/22 11:53:07;;;;;;;11.07;3.00;;;18.00;99.90;;;;;;4987521;28;20308;-75
2022/10/22 11:55:44;;;;;;;7.07;2.72;;;17.90;99.90;;;;;;4984898;28;20018;-74
2022/10/22 11:58:34;;;;;;;6.47;2.80;;;17.90;99.90;;;;;;4987985;28;20029;-75
2022/10/22 12:01:05;;;;;;;6.15;2.60;;;17.90;99.90;;;;;;4975505;28;20090;-74
2022/10/22 12:03:31;;;;;;;8.48;3.20;;;17.80;99.90;;;;;;4991838;28;20034;-74
2022/10/22 12:06:12;;;;;;;9.23;3.10;;;17.70;99.90;;;;;;4984388;28;20614;-73
2022/10/22 12:08:48;;;;;;;7.00;3.30;;;17.70;99.90;;;;;;4981595;28;20109;-74
2022/10/22 12:11:37;;;;;;;5.68;2.78;;;17.60;99.90;;;;;;4967907;28;20165;-73
2022/10/22 12:14:23;;;;;;;8.15;3.50;;;17.60;99.90;;;;;;4981797;28;20030;-74
2022/10/22 12:16:56;;;;;;;7.45;3.60;;;17.60;99.90;;;;;;4992619;28;20030;-74
2022/10/22 12:19:22;;;;;;;9.85;3.90;;;17.50;99.90;;;;;;4985252;28;20026;-73
2022/10/22 12:21:51;;;;;;;9.77;4.00;;;17.50;99.90;;;;;;4985684;28;20384;-72
2022/10/22 12:24:20;;;;;;;8.30;3.35;;;17.40;99.90;;;;;;4985338;28;20522;-74
2022/10/22 12:26:48;;;;;;;7.60;3.15;;;17.40;99.90;;;;;;4990232;28;20036;-73
2022/10/22 12:29:15;;;;;;;9.32;3.65;;;17.50;99.90;;;;;;4978405;28;20027;-73
2022/10/22 12:31:43;;;;;;;9.57;3.63;;;17.50;99.90;;;;;;4971277;28;20065;-73
2022/10/22 12:34:14;;;;;;;6.70;3.75;;;17.50;99.90;;;;;;4970155;28;20469;-73
2022/10/22 12:36:42;;;;;;;5.53;3.25;;;17.40;99.90;;;;;;4986854;28;20089;-74
2022/10/22 12:39:24;;;;;;;9.30;4.03;;;17.40;99.90;;;;;;4986834;28;20030;-74
2022/10/22 12:41:52;;;;;;;7.90;4.25;;;17.50;99.90;;;;;;4995679;28;20018;-74
2022/10/22 12:44:18;;;;;;;8.25;3.80;;;17.50;99.90;;;;;;4986696;28;20034;-72
2022/10/22 12:46:46;;;;;;;8.20;4.10;;;17.50;99.90;;;;;;4987936;28;20053;-74
2022/10/22 12:49:33;;;;;;;7.20;3.80;;;17.50;99.90;;;;;;4986707;28;20038;-72
2022/10/22 12:52:03;;;;;;;8.57;4.40;;;17.60;99.90;;;;;;4968931;28;20030;-73